sensor_id;sensor_type;location;lat;lon;timestamp;pressure;altitude;pressure_sealevel;temperature;humidity
7182;BME280;3632;42.724;23.298;2023-04-07T00:02:04;95138.50;;;4.08;55.81
7182;BME280;3632;42.724;23.298;2023-04-07T00:04:30;95139.94;;;4.12;55.64
7182;BME280;3632;42.724;23.298;2023-04-07T00:06:57;95125.47;;;4.16;55.72
7182;BME280;3632;42.724;23.298;2023-04-07T00:09:25;95037.69;;;3.63;55.40
7182;BME280;3632;42.724;23.298;2023-04-07T00:11:52;95130.44;;;4.18;55.35
7182;BME280;3632;42.724;23.298;2023-04-07T00:14:19;95100.84;;;4.05;54.99
7182;BME280;3632;42.724;23.298;2023-04-07T00:16:45;95134.47;;;4.20;55.35
7182;BME280;3632;42.724;23.298;2023-04-07T00:19:12;95127.72;;;4.21;55.43
7182;BME280;3632;42.724;23.298;2023-04-07T00:21:39;94587.75;;;0.81;55.80
7182;BME280;3632;42.724;23.298;2023-04-07T00:24:06;95125.63;;;4.13;57.03
7182;BME280;3632;42.724;23.298;2023-04-07T00:26:34;95126.91;;;3.90;57.83
7182;BME280;3632;42.724;23.298;2023-04-07T00:29:00;95133.25;;;3.97;60.37
7182;BME280;3632;42.724;23.298;2023-04-07T00:31:27;95096.09;;;3.69;62.64
7182;BME280;3632;42.724;23.298;2023-04-07T00:33:54;94927.88;;;2.37;64.06
7182;BME280;3632;42.724;23.298;2023-04-07T00:36:22;95125.16;;;3.45;66.22
7182;BME280;3632;42.724;23.298;2023-04-07T00:38:49;95112.75;;;1.92;67.44
7182;BME280;3632;42.724;23.298;2023-04-07T00:41:15;95136.22;;;2.94;68.42
7182;BME280;3632;42.724;23.298;2023-04-07T00:43:44;95162.16;;;2.79;70.53
7182;BME280;3632;42.724;23.298;2023-04-07T00:46:11;95144.09;;;2.88;69.68
7182;BME280;3632;42.724;23.298;2023-04-07T00:48:37;95125.84;;;3.16;69.12
7182;BME280;3632;42.724;23.298;2023-04-07T00:51:06;95155.50;;;2.78;69.83
7182;BME280;3632;42.724;23.298;2023-04-07T00:53:33;95098.63;;;2.58;69.82
7182;BME280;3632;42.724;23.298;2023-04-07T00:55:59;94675.38;;;-0.19;70.95
7182;BME280;3632;42.724;23.298;2023-04-07T00:58:26;95136.25;;;2.60;71.35
7182;BME280;3632;42.724;23.298;2023-04-07T01:00:59;95129.47;;;2.62;71.92
7182;BME280;3632;42.724;23.298;2023-04-07T01:03:31;95120.63;;;2.38;73.10
7182;BME280;3632;42.724;23.298;2023-04-07T01:06:00;94448.50;;;-1.81;73.28
7182;BME280;3632;42.724;23.298;2023-04-07T01:08:31;95074.34;;;1.00;73.03
7182;BME280;3632;42.724;23.298;2023-04-07T01:11:12;95122.22;;;2.39;74.44
7182;BME280;3632;42.724;23.298;2023-04-07T01:13:45;95065.59;;;1.97;73.51
7182;BME280;3632;42.724;23.298;2023-04-07T01:16:21;94914.06;;;1.28;73.75
7182;BME280;3632;42.724;23.298;2023-04-07T01:18:51;95118.44;;;2.47;74.76
7182;BME280;3632;42.724;23.298;2023-04-07T01:21:21;95123.34;;;2.16;75.37
7182;BME280;3632;42.724;23.298;2023-04-07T01:24:02;95122.44;;;2.17;76.85
7182;BME280;3632;42.724;23.298;2023-04-07T01:26:32;95143.75;;;2.27;76.00
7182;BME280;3632;42.724;23.298;2023-04-07T01:29:10;95118.97;;;2.02;77.08
7182;BME280;3632;42.724;23.298;2023-04-07T01:31:41;95122.69;;;1.95;77.58
7182;BME280;3632;42.724;23.298;2023-04-07T01:34:09;95117.72;;;1.94;78.05
7182;BME280;3632;42.724;23.298;2023-04-07T01:36:36;95119.78;;;2.03;78.16
7182;BME280;3632;42.724;23.298;2023-04-07T01:39:03;94952.03;;;1.22;77.32
7182;BME280;3632;42.724;23.298;2023-04-07T01:41:32;95030.25;;;1.66;76.77
7182;BME280;3632;42.724;23.298;2023-04-07T01:44:00;94894.06;;;1.09;76.41
7182;BME280;3632;42.724;23.298;2023-04-07T01:46:27;95116.69;;;2.32;76.79
7182;BME280;3632;42.724;23.298;2023-04-07T01:48:56;94945.47;;;0.65;76.69
7182;BME280;3632;42.724;23.298;2023-04-07T01:51:24;95050.16;;;1.88;76.21
7182;BME280;3632;42.724;23.298;2023-04-07T01:53:52;95161.88;;;2.34;76.55
7182;BME280;3632;42.724;23.298;2023-04-07T01:56:19;94860.06;;;0.13;75.72
7182;BME280;3632;42.724;23.298;2023-04-07T01:58:46;95102.84;;;2.58;75.97
7182;BME280;3632;42.724;23.298;2023-04-07T02:01:13;95042.75;;;2.19;74.88
7182;BME280;3632;42.724;23.298;2023-04-07T02:03:43;95035.22;;;2.19;74.26
7182;BME280;3632;42.724;23.298;2023-04-07T02:06:17;95105.41;;;2.56;75.53
7182;BME280;3632;42.724;23.298;2023-04-07T02:08:48;95098.69;;;2.57;75.27
7182;BME280;3632;42.724;23.298;2023-04-07T02:11:17;95027.47;;;1.89;76.03
7182;BME280;3632;42.724;23.298;2023-04-07T02:13:46;95060.09;;;2.41;75.17
7182;BME280;3632;42.724;23.298;2023-04-07T02:16:13;95098.31;;;2.64;75.04
7182;BME280;3632;42.724;23.298;2023-04-07T02:18:42;94988.06;;;2.07;75.66
7182;BME280;3632;42.724;23.298;2023-04-07T02:21:13;95105.53;;;3.03;74.55
7182;BME280;3632;42.724;23.298;2023-04-07T02:23:40;95106.09;;;2.93;74.45
7182;BME280;3632;42.724;23.298;2023-04-07T02:26:07;95106.47;;;2.85;75.55
7182;BME280;3632;42.724;23.298;2023-04-07T02:28:34;95127.25;;;2.56;75.85
7182;BME280;3632;42.724;23.298;2023-04-07T02:31:00;95119.69;;;2.56;76.23
7182;BME280;3632;42.724;23.298;2023-04-07T02:33:27;94949.63;;;1.88;75.60
7182;BME280;3632;42.724;23.298;2023-04-07T02:35:54;95124.88;;;2.70;74.80
7182;BME280;3632;42.724;23.298;2023-04-07T02:38:22;95114.31;;;2.96;75.36
7182;BME280;3632;42.724;23.298;2023-04-07T02:40:49;95109.09;;;2.99;75.88
7182;BME280;3632;42.724;23.298;2023-04-07T02:43:15;95109.84;;;2.68;77.75
7182;BME280;3632;42.724;23.298;2023-04-07T02:45:43;95133.00;;;2.75;77.78
7182;BME280;3632;42.724;23.298;2023-04-07T02:48:10;95141.81;;;2.84;77.51
7182;BME280;3632;42.724;23.298;2023-04-07T02:50:37;95109.94;;;2.67;76.77
7182;BME280;3632;42.724;23.298;2023-04-07T02:53:03;95097.69;;;2.76;78.03
7182;BME280;3632;42.724;23.298;2023-04-07T02:55:32;95008.25;;;1.71;77.35
7182;BME280;3632;42.724;23.298;2023-04-07T02:57:58;95112.66;;;2.80;77.43
7182;BME280;3632;42.724;23.298;2023-04-07T03:00:25;95060.56;;;2.32;78.28
7182;BME280;3632;42.724;23.298;2023-04-07T03:02:52;95099.16;;;2.81;77.34
7182;BME280;3632;42.724;23.298;2023-04-07T03:05:18;95111.03;;;2.61;79.05
7182;BME280;3632;42.724;23.298;2023-04-07T03:07:45;95120.03;;;2.33;79.50
7182;BME280;3632;42.724;23.298;2023-04-07T03:10:12;95115.72;;;2.00;81.69
7182;BME280;3632;42.724;23.298;2023-04-07T03:12:40;95114.22;;;1.79;83.18
7182;BME280;3632;42.724;23.298;2023-04-07T03:15:07;94404.53;;;-2.61;82.86
7182;BME280;3632;42.724;23.298;2023-04-07T03:17:34;95038.34;;;1.36;83.87
7182;BME280;3632;42.724;23.298;2023-04-07T03:20:01;94479.94;;;-1.96;82.17
7182;BME280;3632;42.724;23.298;2023-04-07T03:22:28;95108.34;;;2.14;82.42
7182;BME280;3632;42.724;23.298;2023-04-07T03:24:54;94979.31;;;0.75;80.74
7182;BME280;3632;42.724;23.298;2023-04-07T03:27:21;95103.75;;;2.40;81.12
7182;BME280;3632;42.724;23.298;2023-04-07T03:29:49;95043.47;;;2.21;80.12
7182;BME280;3632;42.724;23.298;2023-04-07T03:32:16;95095.72;;;2.66;79.94
7182;BME280;3632;42.724;23.298;2023-04-07T03:34:43;94948.28;;;1.65;78.67
7182;BME280;3632;42.724;23.298;2023-04-07T03:37:09;95109.56;;;2.57;78.56
7182;BME280;3632;42.724;23.298;2023-04-07T03:39:36;95109.53;;;2.24;80.60
7182;BME280;3632;42.724;23.298;2023-04-07T03:42:04;95113.97;;;2.37;80.85
7182;BME280;3632;42.724;23.298;2023-04-07T03:44:31;95115.72;;;2.35;79.29
7182;BME280;3632;42.724;23.298;2023-04-07T03:46:59;95119.66;;;2.23;79.11
7182;BME280;3632;42.724;23.298;2023-04-07T03:49:26;95114.91;;;2.34;79.03
7182;BME280;3632;42.724;23.298;2023-04-07T03:51:52;95123.81;;;2.74;78.17
7182;BME280;3632;42.724;23.298;2023-04-07T03:54:19;95117.69;;;2.95;77.16
7182;BME280;3632;42.724;23.298;2023-04-07T03:56:46;95115.06;;;3.14;76.58
7182;BME280;3632;42.724;23.298;2023-04-07T03:59:12;94919.50;;;1.88;75.89
7182;BME280;3632;42.724;23.298;2023-04-07T04:01:39;95006.59;;;2.54;75.30
7182;BME280;3632;42.724;23.298;2023-04-07T04:04:07;94390.59;;;-1.70;75.15
7182;BME280;3632;42.724;23.298;2023-04-07T04:06:34;95128.16;;;2.88;76.80
7182;BME280;3632;42.724;23.298;2023-04-07T04:09:01;95126.53;;;2.87;75.87
7182;BME280;3632;42.724;23.298;2023-04-07T04:11:27;94915.97;;;1.57;75.87
7182;BME280;3632;42.724;23.298;2023-04-07T04:13:56;95033.56;;;2.35;75.57
7182;BME280;3632;42.724;23.298;2023-04-07T04:16:22;95138.84;;;3.08;74.71
7182;BME280;3632;42.724;23.298;2023-04-07T04:18:49;95189.84;;;3.12;74.84
7182;BME280;3632;42.724;23.298;2023-04-07T04:21:17;95017.38;;;2.56;74.47
7182;BME280;3632;42.724;23.298;2023-04-07T04:23:44;95047.28;;;2.78;74.03
7182;BME280;3632;42.724;23.298;2023-04-07T04:26:11;95181.25;;;2.83;73.23
7182;BME280;3632;42.724;23.298;2023-04-07T04:28:38;95134.66;;;3.40;73.75
7182;BME280;3632;42.724;23.298;2023-04-07T04:31:04;95147.69;;;3.15;74.17
7182;BME280;3632;42.724;23.298;2023-04-07T04:33:31;95139.66;;;3.09;73.66
7182;BME280;3632;42.724;23.298;2023-04-07T04:35:58;95096.69;;;2.96;73.63
7182;BME280;3632;42.724;23.298;2023-04-07T04:38:26;95165.22;;;3.34;74.46
7182;BME280;3632;42.724;23.298;2023-04-07T04:40:52;95167.06;;;3.31;73.60
7182;BME280;3632;42.724;23.298;2023-04-07T04:43:19;95139.59;;;3.26;75.44
7182;BME280;3632;42.724;23.298;2023-04-07T04:45:46;95158.28;;;2.89;72.93
7182;BME280;3632;42.724;23.298;2023-04-07T04:48:13;95188.63;;;3.52;72.78
7182;BME280;3632;42.724;23.298;2023-04-07T04:50:41;95145.94;;;3.80;72.65
7182;BME280;3632;42.724;23.298;2023-04-07T04:53:07;95090.44;;;3.19;73.36
7182;BME280;3632;42.724;23.298;2023-04-07T04:55:36;95155.81;;;3.69;73.89
7182;BME280;3632;42.724;23.298;2023-04-07T04:58:05;95192.13;;;3.96;72.92
7182;BME280;3632;42.724;23.298;2023-04-07T05:00:31;95181.16;;;3.97;73.35
7182;BME280;3632;42.724;23.298;2023-04-07T05:02:58;95182.63;;;3.86;73.19
7182;BME280;3632;42.724;23.298;2023-04-07T05:05:25;95165.91;;;4.14;72.56
7182;BME280;3632;42.724;23.298;2023-04-07T05:07:52;95179.44;;;3.98;73.67
7182;BME280;3632;42.724;23.298;2023-04-07T05:10:19;95253.69;;;4.24;73.08
7182;BME280;3632;42.724;23.298;2023-04-07T05:12:47;95172.53;;;4.01;72.95
7182;BME280;3632;42.724;23.298;2023-04-07T05:15:13;95184.13;;;4.20;73.43
7182;BME280;3632;42.724;23.298;2023-04-07T05:17:40;95218.03;;;4.30;73.00
7182;BME280;3632;42.724;23.298;2023-04-07T05:20:09;95111.50;;;4.10;72.63
7182;BME280;3632;42.724;23.298;2023-04-07T05:22:36;95069.13;;;3.72;71.63
7182;BME280;3632;42.724;23.298;2023-04-07T05:25:03;95174.59;;;4.25;72.61
7182;BME280;3632;42.724;23.298;2023-04-07T05:27:29;95176.16;;;4.27;72.54
7182;BME280;3632;42.724;23.298;2023-04-07T05:29:58;95176.56;;;4.20;73.00
7182;BME280;3632;42.724;23.298;2023-04-07T05:32:26;95182.56;;;4.17;71.12
7182;BME280;3632;42.724;23.298;2023-04-07T05:34:54;95124.00;;;3.51;71.75
7182;BME280;3632;42.724;23.298;2023-04-07T05:37:21;95187.81;;;4.14;71.39
7182;BME280;3632;42.724;23.298;2023-04-07T05:39:47;95190.78;;;4.21;71.71
7182;BME280;3632;42.724;23.298;2023-04-07T05:42:14;95176.44;;;4.07;70.91
7182;BME280;3632;42.724;23.298;2023-04-07T05:44:41;95177.50;;;4.03;71.84
7182;BME280;3632;42.724;23.298;2023-04-07T05:47:09;95183.66;;;3.97;71.54
7182;BME280;3632;42.724;23.298;2023-04-07T05:49:36;95186.34;;;3.63;73.01
7182;BME280;3632;42.724;23.298;2023-04-07T05:52:10;95184.72;;;3.31;73.76
7182;BME280;3632;42.724;23.298;2023-04-07T05:54:36;95158.13;;;2.92;73.81
7182;BME280;3632;42.724;23.298;2023-04-07T05:57:04;95193.84;;;3.64;73.39
7182;BME280;3632;42.724;23.298;2023-04-07T05:59:31;95153.25;;;3.38;72.34
7182;BME280;3632;42.724;23.298;2023-04-07T06:01:58;95178.94;;;4.07;88.17
7182;BME280;3632;42.724;23.298;2023-04-07T06:04:26;95179.88;;;4.50;72.55
7182;BME280;3632;42.724;23.298;2023-04-07T06:06:53;95027.28;;;3.53;69.77
7182;BME280;3632;42.724;23.298;2023-04-07T06:09:20;95177.34;;;4.36;69.72
7182;BME280;3632;42.724;23.298;2023-04-07T06:11:46;95175.78;;;4.33;70.92
7182;BME280;3632;42.724;23.298;2023-04-07T06:14:13;95192.41;;;4.22;70.48
7182;BME280;3632;42.724;23.298;2023-04-07T06:16:40;95008.34;;;2.37;70.37
7182;BME280;3632;42.724;23.298;2023-04-07T06:19:07;95175.91;;;4.76;69.29
7182;BME280;3632;42.724;23.298;2023-04-07T06:21:35;95171.09;;;4.57;67.55
7182;BME280;3632;42.724;23.298;2023-04-07T06:24:02;95177.47;;;4.19;70.72
7182;BME280;3632;42.724;23.298;2023-04-07T06:26:29;95115.16;;;4.35;69.96
7182;BME280;3632;42.724;23.298;2023-04-07T06:28:56;95179.94;;;5.08;66.23
7182;BME280;3632;42.724;23.298;2023-04-07T06:31:23;95174.94;;;5.35;66.40
7182;BME280;3632;42.724;23.298;2023-04-07T06:33:50;95180.00;;;5.49;64.55
7182;BME280;3632;42.724;23.298;2023-04-07T06:36:20;95178.72;;;5.56;64.87
7182;BME280;3632;42.724;23.298;2023-04-07T06:38:49;95069.13;;;5.30;63.14
7182;BME280;3632;42.724;23.298;2023-04-07T06:41:15;94610.00;;;2.11;61.39
7182;BME280;3632;42.724;23.298;2023-04-07T06:43:46;95070.00;;;5.70;60.69
7182;BME280;3632;42.724;23.298;2023-04-07T06:46:13;95164.72;;;6.32;60.83
7182;BME280;3632;42.724;23.298;2023-04-07T06:48:42;95193.16;;;6.63;61.87
7182;BME280;3632;42.724;23.298;2023-04-07T06:51:08;95162.59;;;6.91;60.58
7182;BME280;3632;42.724;23.298;2023-04-07T06:53:35;94839.69;;;4.01;58.86
7182;BME280;3632;42.724;23.298;2023-04-07T06:56:04;95154.41;;;7.13;58.09
7182;BME280;3632;42.724;23.298;2023-04-07T06:58:32;95168.53;;;7.53;55.45
7182;BME280;3632;42.724;23.298;2023-04-07T07:00:59;95090.34;;;6.85;55.07
7182;BME280;3632;42.724;23.298;2023-04-07T07:03:26;95177.88;;;7.40;51.70
7182;BME280;3632;42.724;23.298;2023-04-07T07:05:54;94841.41;;;5.35;47.36
7182;BME280;3632;42.724;23.298;2023-04-07T07:08:21;95172.84;;;7.15;46.30
7182;BME280;3632;42.724;23.298;2023-04-07T07:10:48;95169.91;;;7.08;47.79
7182;BME280;3632;42.724;23.298;2023-04-07T07:13:17;95181.47;;;7.00;47.45
7182;BME280;3632;42.724;23.298;2023-04-07T07:15:44;94533.97;;;2.92;45.87
7182;BME280;3632;42.724;23.298;2023-04-07T07:18:11;94509.44;;;2.82;46.30
7182;BME280;3632;42.724;23.298;2023-04-07T07:20:38;95178.72;;;6.90;45.63
7182;BME280;3632;42.724;23.298;2023-04-07T07:23:05;95177.16;;;6.87;46.61
7182;BME280;3632;42.724;23.298;2023-04-07T07:25:31;95168.69;;;7.01;46.30
7182;BME280;3632;42.724;23.298;2023-04-07T07:27:58;94905.94;;;4.46;45.38
7182;BME280;3632;42.724;23.298;2023-04-07T07:30:27;94529.63;;;3.08;45.44
7182;BME280;3632;42.724;23.298;2023-04-07T07:32:54;95179.41;;;7.17;45.92
7182;BME280;3632;42.724;23.298;2023-04-07T07:35:21;95190.06;;;7.22;45.64
7182;BME280;3632;42.724;23.298;2023-04-07T07:37:49;95185.50;;;7.15;45.19
7182;BME280;3632;42.724;23.298;2023-04-07T07:40:16;95129.03;;;6.87;44.77
7182;BME280;3632;42.724;23.298;2023-04-07T07:42:44;95236.63;;;7.47;44.54
7182;BME280;3632;42.724;23.298;2023-04-07T07:45:11;95190.16;;;7.59;44.24
7182;BME280;3632;42.724;23.298;2023-04-07T07:47:39;95017.38;;;5.63;44.40
7182;BME280;3632;42.724;23.298;2023-04-07T07:50:06;95178.91;;;7.87;43.92
7182;BME280;3632;42.724;23.298;2023-04-07T07:52:33;95195.75;;;7.88;43.77
7182;BME280;3632;42.724;23.298;2023-04-07T07:55:00;95176.66;;;7.95;44.30
7182;BME280;3632;42.724;23.298;2023-04-07T07:57:27;94453.50;;;3.05;43.95
7182;BME280;3632;42.724;23.298;2023-04-07T07:59:55;95193.38;;;7.61;43.98
7182;BME280;3632;42.724;23.298;2023-04-07T08:02:21;95180.59;;;7.62;43.87
7182;BME280;3632;42.724;23.298;2023-04-07T08:04:55;95185.16;;;7.57;44.11
7182;BME280;3632;42.724;23.298;2023-04-07T08:07:22;95188.50;;;7.70;44.86
7182;BME280;3632;42.724;23.298;2023-04-07T08:09:49;95192.22;;;7.77;44.14
7182;BME280;3632;42.724;23.298;2023-04-07T08:12:15;94847.41;;;4.12;43.91
7182;BME280;3632;42.724;23.298;2023-04-07T08:14:42;95135.50;;;7.42;44.67
7182;BME280;3632;42.724;23.298;2023-04-07T08:17:09;95090.81;;;7.28;43.18
7182;BME280;3632;42.724;23.298;2023-04-07T08:19:36;94882.50;;;5.12;43.79
7182;BME280;3632;42.724;23.298;2023-04-07T08:22:05;95114.69;;;7.50;43.81
7182;BME280;3632;42.724;23.298;2023-04-07T08:24:31;95190.22;;;8.06;43.52
7182;BME280;3632;42.724;23.298;2023-04-07T08:26:58;95157.69;;;8.11;43.49
7182;BME280;3632;42.724;23.298;2023-04-07T08:29:25;95197.34;;;8.38;43.00
7182;BME280;3632;42.724;23.298;2023-04-07T08:31:52;95078.50;;;7.35;44.05
7182;BME280;3632;42.724;23.298;2023-04-07T08:34:19;95138.94;;;7.77;44.10
7182;BME280;3632;42.724;23.298;2023-04-07T08:36:46;95144.69;;;7.92;43.09
7182;BME280;3632;42.724;23.298;2023-04-07T08:39:14;94860.22;;;5.56;43.57
7182;BME280;3632;42.724;23.298;2023-04-07T08:41:41;94617.13;;;4.51;43.24
7182;BME280;3632;42.724;23.298;2023-04-07T08:44:09;95188.69;;;8.40;42.99
7182;BME280;3632;42.724;23.298;2023-04-07T08:46:37;95031.28;;;7.58;43.18
7182;BME280;3632;42.724;23.298;2023-04-07T08:49:08;95197.03;;;8.53;42.33
7182;BME280;3632;42.724;23.298;2023-04-07T08:51:36;94728.16;;;4.64;42.43
7182;BME280;3632;42.724;23.298;2023-04-07T08:54:07;95190.53;;;8.38;42.89
7182;BME280;3632;42.724;23.298;2023-04-07T08:56:37;95132.66;;;8.07;41.71
7182;BME280;3632;42.724;23.298;2023-04-07T08:59:06;95187.84;;;8.52;42.13
7182;BME280;3632;42.724;23.298;2023-04-07T09:01:34;95177.94;;;8.60;42.78
7182;BME280;3632;42.724;23.298;2023-04-07T09:04:02;95187.94;;;8.97;42.42
7182;BME280;3632;42.724;23.298;2023-04-07T09:06:29;95191.94;;;9.12;42.57
7182;BME280;3632;42.724;23.298;2023-04-07T09:08:56;95202.63;;;9.04;41.59
7182;BME280;3632;42.724;23.298;2023-04-07T09:11:25;95193.94;;;8.96;41.94
7182;BME280;3632;42.724;23.298;2023-04-07T09:13:54;95193.06;;;9.08;41.42
7182;BME280;3632;42.724;23.298;2023-04-07T09:16:21;95193.75;;;9.10;41.79
7182;BME280;3632;42.724;23.298;2023-04-07T09:18:49;95197.34;;;9.30;41.94
7182;BME280;3632;42.724;23.298;2023-04-07T09:21:16;95191.56;;;9.05;41.21
7182;BME280;3632;42.724;23.298;2023-04-07T09:23:42;95232.38;;;8.80;41.77
7182;BME280;3632;42.724;23.298;2023-04-07T09:26:24;95208.56;;;9.27;41.54
7182;BME280;3632;42.724;23.298;2023-04-07T09:28:56;95186.59;;;9.26;41.82
7182;BME280;3632;42.724;23.298;2023-04-07T09:31:43;95195.25;;;9.12;42.42
7182;BME280;3632;42.724;23.298;2023-04-07T09:34:23;95183.72;;;9.20;42.95
7182;BME280;3632;42.724;23.298;2023-04-07T09:36:50;95182.78;;;9.09;41.73
7182;BME280;3632;42.724;23.298;2023-04-07T09:39:16;95117.44;;;8.77;41.85
7182;BME280;3632;42.724;23.298;2023-04-07T09:41:43;95156.28;;;8.90;42.10
7182;BME280;3632;42.724;23.298;2023-04-07T09:44:12;95199.88;;;9.07;42.54
7182;BME280;3632;42.724;23.298;2023-04-07T09:46:47;95195.25;;;9.12;41.73
7182;BME280;3632;42.724;23.298;2023-04-07T09:49:14;95199.06;;;9.07;42.59
7182;BME280;3632;42.724;23.298;2023-04-07T09:51:52;95222.28;;;9.02;43.61
7182;BME280;3632;42.724;23.298;2023-04-07T09:54:34;95064.59;;;8.12;43.73
7182;BME280;3632;42.724;23.298;2023-04-07T09:57:02;95140.56;;;8.85;43.95
7182;BME280;3632;42.724;23.298;2023-04-07T09:59:32;95211.22;;;9.26;43.20
7182;BME280;3632;42.724;23.298;2023-04-07T10:01:59;95208.56;;;9.38;43.21
7182;BME280;3632;42.724;23.298;2023-04-07T10:04:26;95219.91;;;9.23;42.87
7182;BME280;3632;42.724;23.298;2023-04-07T10:06:55;95214.13;;;9.32;43.33
7182;BME280;3632;42.724;23.298;2023-04-07T10:09:23;95238.91;;;9.41;43.37
7182;BME280;3632;42.724;23.298;2023-04-07T10:11:51;94813.78;;;6.20;44.51
7182;BME280;3632;42.724;23.298;2023-04-07T10:14:18;95065.56;;;7.87;44.02
7182;BME280;3632;42.724;23.298;2023-04-07T10:16:48;95207.31;;;9.44;43.61
7182;BME280;3632;42.724;23.298;2023-04-07T10:19:17;95024.47;;;8.52;44.04
7182;BME280;3632;42.724;23.298;2023-04-07T10:21:48;95233.38;;;9.58;44.42
7182;BME280;3632;42.724;23.298;2023-04-07T10:24:27;95208.72;;;9.70;54.06
7182;BME280;3632;42.724;23.298;2023-04-07T10:26:59;95241.56;;;10.18;55.77
7182;BME280;3632;42.724;23.298;2023-04-07T10:29:28;95187.41;;;11.51;55.35
7182;BME280;3632;42.724;23.298;2023-04-07T10:32:00;95071.97;;;11.28;43.07
7182;BME280;3632;42.724;23.298;2023-04-07T10:34:56;95195.66;;;11.34;42.47
7182;BME280;3632;42.724;23.298;2023-04-07T10:37:24;95133.66;;;9.64;44.12
7182;BME280;3632;42.724;23.298;2023-04-07T10:42:52;95172.72;;;9.63;45.55
7182;BME280;3632;42.724;23.298;2023-04-07T10:45:51;95214.38;;;9.74;44.74
7182;BME280;3632;42.724;23.298;2023-04-07T10:48:20;95118.75;;;9.04;46.12
7182;BME280;3632;42.724;23.298;2023-04-07T10:51:15;95218.88;;;9.48;45.36
7182;BME280;3632;42.724;23.298;2023-04-07T10:57:11;95216.34;;;9.37;47.38
7182;BME280;3632;42.724;23.298;2023-04-07T10:59:40;95162.34;;;8.65;47.42
7182;BME280;3632;42.724;23.298;2023-04-07T11:02:33;95228.34;;;9.35;46.63
7182;BME280;3632;42.724;23.298;2023-04-07T11:05:02;95230.94;;;9.46;47.47
7182;BME280;3632;42.724;23.298;2023-04-07T11:07:52;95229.44;;;9.54;46.61
7182;BME280;3632;42.724;23.298;2023-04-07T11:10:22;94826.25;;;6.71;47.20
7182;BME280;3632;42.724;23.298;2023-04-07T11:13:02;95225.94;;;9.55;47.36
7182;BME280;3632;42.724;23.298;2023-04-07T11:15:30;95231.94;;;9.43;47.72
7182;BME280;3632;42.724;23.298;2023-04-07T11:18:17;95229.88;;;9.48;46.90
7182;BME280;3632;42.724;23.298;2023-04-07T11:20:47;95225.38;;;9.41;47.75
7182;BME280;3632;42.724;23.298;2023-04-07T11:23:16;95216.69;;;9.43;48.04
7182;BME280;3632;42.724;23.298;2023-04-07T11:25:50;95099.69;;;8.99;48.67
7182;BME280;3632;42.724;23.298;2023-04-07T11:28:22;94970.88;;;8.33;46.59
7182;BME280;3632;42.724;23.298;2023-04-07T11:30:50;95055.41;;;8.57;46.48
7182;BME280;3632;42.724;23.298;2023-04-07T11:33:18;94706.06;;;6.29;46.72
7182;BME280;3632;42.724;23.298;2023-04-07T11:35:51;95230.94;;;9.79;47.06
7182;BME280;3632;42.724;23.298;2023-04-07T11:38:19;95181.41;;;9.39;47.09
7182;BME280;3632;42.724;23.298;2023-04-07T11:40:46;95241.69;;;9.49;47.27
7182;BME280;3632;42.724;23.298;2023-04-07T11:43:18;95229.66;;;9.74;47.17
7182;BME280;3632;42.724;23.298;2023-04-07T11:45:45;95239.47;;;10.00;47.31
7182;BME280;3632;42.724;23.298;2023-04-07T11:48:31;95232.53;;;10.14;45.99
7182;BME280;3632;42.724;23.298;2023-04-07T11:51:00;95239.94;;;10.17;46.52
7182;BME280;3632;42.724;23.298;2023-04-07T11:53:28;95184.84;;;10.04;46.65
7182;BME280;3632;42.724;23.298;2023-04-07T11:55:59;95232.47;;;10.47;46.00
7182;BME280;3632;42.724;23.298;2023-04-07T11:58:26;95224.22;;;10.54;46.69
7182;BME280;3632;42.724;23.298;2023-04-07T12:00:54;95152.06;;;10.11;45.82
7182;BME280;3632;42.724;23.298;2023-04-07T12:03:21;95227.28;;;10.37;46.06
7182;BME280;3632;42.724;23.298;2023-04-07T12:05:48;94756.56;;;7.35;45.71
7182;BME280;3632;42.724;23.298;2023-04-07T12:08:17;95226.19;;;10.83;45.74
7182;BME280;3632;42.724;23.298;2023-04-07T12:10:44;95167.75;;;10.91;45.80
7182;BME280;3632;42.724;23.298;2023-04-07T12:13:12;95220.97;;;11.46;45.00
7182;BME280;3632;42.724;23.298;2023-04-07T12:15:39;95222.22;;;11.52;45.38
7182;BME280;3632;42.724;23.298;2023-04-07T12:18:06;95201.84;;;10.90;45.84
7182;BME280;3632;42.724;23.298;2023-04-07T12:20:33;94655.41;;;7.32;43.86
7182;BME280;3632;42.724;23.298;2023-04-07T12:23:00;95097.09;;;10.20;44.60
7182;BME280;3632;42.724;23.298;2023-04-07T12:25:28;95110.34;;;9.80;45.47
7182;BME280;3632;42.724;23.298;2023-04-07T12:27:55;95225.16;;;10.53;45.07
7182;BME280;3632;42.724;23.298;2023-04-07T12:30:21;95219.25;;;10.53;44.86
7182;BME280;3632;42.724;23.298;2023-04-07T12:32:48;95235.78;;;10.59;46.00
7182;BME280;3632;42.724;23.298;2023-04-07T12:35:15;95159.72;;;10.22;45.55
7182;BME280;3632;42.724;23.298;2023-04-07T12:37:42;95221.34;;;10.80;46.11
7182;BME280;3632;42.724;23.298;2023-04-07T12:40:10;94712.56;;;7.58;44.11
7182;BME280;3632;42.724;23.298;2023-04-07T12:42:38;94985.69;;;8.72;45.72
7182;BME280;3632;42.724;23.298;2023-04-07T12:45:06;95232.78;;;10.65;45.76
7182;BME280;3632;42.724;23.298;2023-04-07T12:47:33;95226.25;;;10.72;45.91
7182;BME280;3632;42.724;23.298;2023-04-07T12:49:59;95222.53;;;10.96;45.82
7182;BME280;3632;42.724;23.298;2023-04-07T12:52:29;95220.44;;;10.70;45.02
7182;BME280;3632;42.724;23.298;2023-04-07T12:54:56;95219.06;;;10.77;44.91
7182;BME280;3632;42.724;23.298;2023-04-07T12:57:23;95225.00;;;10.87;46.10
7182;BME280;3632;42.724;23.298;2023-04-07T12:59:52;95244.38;;;10.58;44.86
7182;BME280;3632;42.724;23.298;2023-04-07T13:02:19;95218.16;;;10.67;45.77
7182;BME280;3632;42.724;23.298;2023-04-07T13:04:46;95257.97;;;10.79;44.72
7182;BME280;3632;42.724;23.298;2023-04-07T13:07:13;95142.22;;;9.75;46.18
7182;BME280;3632;42.724;23.298;2023-04-07T13:09:40;95140.38;;;9.66;45.38
7182;BME280;3632;42.724;23.298;2023-04-07T13:12:08;95229.38;;;10.32;45.87
7182;BME280;3632;42.724;23.298;2023-04-07T13:14:38;95108.72;;;9.36;46.41
7182;BME280;3632;42.724;23.298;2023-04-07T13:17:11;95102.91;;;9.34;46.11
7182;BME280;3632;42.724;23.298;2023-04-07T13:19:38;95231.47;;;10.27;47.04
7182;BME280;3632;42.724;23.298;2023-04-07T13:22:05;95183.94;;;10.05;45.63
7182;BME280;3632;42.724;23.298;2023-04-07T13:24:32;95235.94;;;10.46;46.24
7182;BME280;3632;42.724;23.298;2023-04-07T13:26:59;95117.25;;;9.46;45.37
7182;BME280;3632;42.724;23.298;2023-04-07T13:29:27;94934.91;;;8.15;46.94
7182;BME280;3632;42.724;23.298;2023-04-07T13:32:03;94794.97;;;6.72;47.06
7182;BME280;3632;42.724;23.298;2023-04-07T13:34:32;95225.22;;;9.98;46.40